createdAt,value
2022-08-16T00:00:22.084Z,45.20
2022-08-16T00:01:08.731Z,39.20
2022-08-16T00:02:12.958Z,47.00
2022-08-16T00:03:13.635Z,48.20
2022-08-16T00:04:09.678Z,49.20
2022-08-16T00:05:08.695Z,54.00
2022-08-16T00:06:10.127Z,46.10
2022-08-16T00:07:08.640Z,47.00
2022-08-16T00:08:08.625Z,51.20
2022-08-16T00:09:10.819Z,44.60
2022-08-16T00:10:08.655Z,56.40
2022-08-16T00:11:08.614Z,46.40
2022-08-16T00:12:08.638Z,44.80
2022-08-16T00:13:08.597Z,52.30
2022-08-16T00:14:08.969Z,53.30
2022-08-16T00:15:11.734Z,56.50
2022-08-16T00:16:58.003Z,68.30
2022-08-16T00:17:19.179Z,64.40
2022-08-16T00:18:08.513Z,50.10
2022-08-16T00:19:08.543Z,51.10
2022-08-16T00:20:08.542Z,48.30
2022-08-16T00:21:08.486Z,52.50
2022-08-16T00:22:13.643Z,51.30
2022-08-16T00:23:08.449Z,86.40
2022-08-16T00:24:11.643Z,78.90
2022-08-16T00:25:08.419Z,69.60
2022-08-16T00:26:36.329Z,76.30
2022-08-16T00:27:08.562Z,58.90
2022-08-16T00:28:08.395Z,48.70
2022-08-16T00:29:08.353Z,53.60
2022-08-16T00:30:19.502Z,50.10
2022-08-16T00:31:08.363Z,46.10
2022-08-16T00:32:08.450Z,42.40
2022-08-16T00:33:08.443Z,85.00
2022-08-16T00:34:08.344Z,47.30
2022-08-16T00:35:14.997Z,42.50
2022-08-16T00:36:08.413Z,46.80
2022-08-16T00:37:08.267Z,51.70
2022-08-16T00:38:41.045Z,43.40
2022-08-16T00:39:08.259Z,54.40
2022-08-16T00:40:08.285Z,45.10
2022-08-16T00:41:08.250Z,81.30
2022-08-16T00:42:09.950Z,65.70
2022-08-16T00:43:12.001Z,57.60
2022-08-16T00:44:08.185Z,55.50
2022-08-16T00:45:09.267Z,50.30
2022-08-16T00:46:34.059Z,54.30
2022-08-16T00:47:08.183Z,58.40
2022-08-16T00:48:30.521Z,48.90
2022-08-16T00:49:17.259Z,50.40
2022-08-16T00:50:11.339Z,48.10
2022-08-16T00:51:08.069Z,56.80
2022-08-16T00:52:30.298Z,60.40
2022-08-16T00:53:08.073Z,62.50
2022-08-16T00:54:08.038Z,55.70
2022-08-16T00:55:08.340Z,53.80
2022-08-16T00:56:08.003Z,65.30
2022-08-16T00:57:07.990Z,54.80
2022-08-16T00:58:13.033Z,59.00
2022-08-16T00:59:07.989Z,58.30
2022-08-16T01:00:07.927Z,55.50
2022-08-16T01:01:08.491Z,54.80
2022-08-16T01:02:30.669Z,62.10
2022-08-16T01:03:07.904Z,49.90
2022-08-16T01:04:29.290Z,59.00
2022-08-16T01:05:11.351Z,48.30
2022-08-16T01:06:39.897Z,56.30
2022-08-16T01:07:07.857Z,47.60
2022-08-16T01:08:35.009Z,50.70
2022-08-16T01:09:07.848Z,58.50
2022-08-16T01:10:16.566Z,59.80
2022-08-16T01:11:07.824Z,62.30
2022-08-16T01:12:08.591Z,65.50
2022-08-16T01:13:07.903Z,93.10
2022-08-16T01:14:07.793Z,69.80
2022-08-16T01:15:07.761Z,60.50
2022-08-16T01:16:10.314Z,60.70
2022-08-16T01:17:08.271Z,61.60
2022-08-16T01:18:07.714Z,71.90
2022-08-16T01:19:07.732Z,74.10
2022-08-16T01:20:23.347Z,75.90
2022-08-16T01:21:07.701Z,69.20
2022-08-16T01:22:47.700Z,71.30
2022-08-16T01:23:08.815Z,73.60
2022-08-16T01:24:52.650Z,76.20
2022-08-16T01:25:07.619Z,62.10
2022-08-16T01:26:34.959Z,65.40
2022-08-16T01:27:07.646Z,69.30
2022-08-16T01:28:07.717Z,52.30
2022-08-16T01:29:10.051Z,58.90
2022-08-16T01:30:20.583Z,54.80
2022-08-16T01:31:07.576Z,62.30
2022-08-16T01:32:07.551Z,70.70
2022-08-16T01:33:14.396Z,72.30
2022-08-16T01:34:07.540Z,61.20
2022-08-16T01:35:07.498Z,66.00
2022-08-16T01:36:09.537Z,61.30
2022-08-16T01:37:07.481Z,60.00
2022-08-16T01:38:07.453Z,67.10
2022-08-16T01:39:07.413Z,70.00
2022-08-16T01:40:07.719Z,79.20
2022-08-16T01:41:07.389Z,81.50
2022-08-16T01:42:12.089Z,68.90
2022-08-16T01:43:07.392Z,67.00
2022-08-16T01:44:07.372Z,62.60
2022-08-16T01:45:07.379Z,68.30
2022-08-16T01:46:29.606Z,69.40
2022-08-16T01:47:07.335Z,69.70
2022-08-16T01:48:19.290Z,71.30
2022-08-16T01:49:07.282Z,68.50
2022-08-16T01:50:42.086Z,77.70
2022-08-16T01:51:17.066Z,70.50
2022-08-16T01:52:07.275Z,55.90
2022-08-16T01:53:07.262Z,52.40
2022-08-16T01:54:07.232Z,54.00
2022-08-16T01:55:07.232Z,54.00
2022-08-16T01:56:07.183Z,58.90
2022-08-16T01:57:07.224Z,53.90
2022-08-16T01:58:07.204Z,56.60
2022-08-16T01:59:07.169Z,49.30
2022-08-16T02:00:19.084Z,54.30
2022-08-16T02:01:07.197Z,50.10
2022-08-16T02:02:26.892Z,58.40
2022-08-16T02:03:07.134Z,78.30
2022-08-16T02:04:10.854Z,54.60
2022-08-16T02:05:07.100Z,61.90
2022-08-16T02:06:08.091Z,61.10
2022-08-16T02:07:07.082Z,55.70
2022-08-16T02:08:07.043Z,69.10
2022-08-16T02:09:07.044Z,67.70
2022-08-16T02:10:07.021Z,50.80
2022-08-16T02:11:07.028Z,42.60
2022-08-16T02:12:50.398Z,69.80
2022-08-16T02:13:07.441Z,62.00
2022-08-16T02:14:06.965Z,91.30
2022-08-16T02:15:06.944Z,62.90
2022-08-16T02:16:06.957Z,42.70
2022-08-16T02:17:06.920Z,46.90
2022-08-16T02:18:06.862Z,45.20
2022-08-16T02:19:15.870Z,41.20
2022-08-16T02:20:11.356Z,43.90
2022-08-16T02:21:06.835Z,43.90
2022-08-16T02:22:08.360Z,41.30
2022-08-16T02:23:06.829Z,38.80
2022-08-16T02:24:32.023Z,30.60
2022-08-16T02:25:06.793Z,46.00
2022-08-16T02:26:06.768Z,49.60
2022-08-16T02:27:06.772Z,65.00
2022-08-16T02:28:06.748Z,115.60
2022-08-16T02:29:06.716Z,97.60
2022-08-16T02:30:06.760Z,82.30
2022-08-16T02:31:06.711Z,75.40
2022-08-16T02:32:48.944Z,105.60
2022-08-16T02:33:07.044Z,86.00
2022-08-16T02:34:06.655Z,79.50
2022-08-16T02:35:06.673Z,69.20
2022-08-16T02:36:06.661Z,72.50
2022-08-16T02:37:06.610Z,64.20
2022-08-16T02:38:08.908Z,60.90
2022-08-16T02:39:06.603Z,61.70
2022-08-16T02:40:06.668Z,64.00
2022-08-16T02:41:07.270Z,66.70
2022-08-16T02:42:06.569Z,65.60
2022-08-16T02:43:06.535Z,67.50
2022-08-16T02:44:06.541Z,62.20
2022-08-16T02:45:06.502Z,72.10
2022-08-16T02:46:07.501Z,64.80
2022-08-16T02:47:06.490Z,66.30
2022-08-16T02:48:28.344Z,58.60
2022-08-16T02:49:07.180Z,62.00
2022-08-16T02:50:53.750Z,55.00
2022-08-16T02:51:11.805Z,59.40
2022-08-16T02:52:06.434Z,52.20
2022-08-16T02:53:06.446Z,59.80
2022-08-16T02:54:06.394Z,95.80
2022-08-16T02:55:06.417Z,101.40
2022-08-16T02:56:06.386Z,71.10
2022-08-16T02:57:06.366Z,65.50
2022-08-16T02:58:06.336Z,63.40
2022-08-16T02:59:11.840Z,92.80
2022-08-16T03:00:34.594Z,62.10
2022-08-16T03:01:06.351Z,72.40
2022-08-16T03:02:08.223Z,69.50
2022-08-16T03:03:10.401Z,66.90
2022-08-16T03:04:39.792Z,68.80
2022-08-16T03:05:06.225Z,57.20
2022-08-16T03:06:41.360Z,54.50
2022-08-16T03:07:06.238Z,46.30
2022-08-16T03:08:06.203Z,55.00
2022-08-16T03:09:06.183Z,64.00
2022-08-16T03:10:06.173Z,72.50
2022-08-16T03:11:06.170Z,52.40
2022-08-16T03:12:06.131Z,51.60
2022-08-16T03:13:12.677Z,47.00
2022-08-16T03:14:07.695Z,56.20
2022-08-16T03:15:06.098Z,61.10
2022-08-16T03:16:06.077Z,61.10
2022-08-16T03:17:06.089Z,64.20
2022-08-16T03:18:06.058Z,53.30
2022-08-16T03:19:06.053Z,49.90
2022-08-16T03:20:06.016Z,48.30
2022-08-16T03:21:06.021Z,63.90
2022-08-16T03:22:05.986Z,59.40
2022-08-16T03:23:05.976Z,63.70
2022-08-16T03:24:05.983Z,60.30
2022-08-16T03:25:07.484Z,62.90
2022-08-16T03:26:05.965Z,59.50
2022-08-16T03:27:05.928Z,58.00
2022-08-16T03:28:05.936Z,49.80
2022-08-16T03:29:05.892Z,77.30
2022-08-16T03:30:16.246Z,67.10
2022-08-16T03:31:05.891Z,56.40
2022-08-16T03:32:05.870Z,55.40
2022-08-16T03:33:07.514Z,65.10
2022-08-16T03:34:05.836Z,88.30
2022-08-16T03:35:05.835Z,71.80
2022-08-16T03:36:29.742Z,98.10
2022-08-16T03:37:05.861Z,73.70
2022-08-16T03:38:32.900Z,60.80
2022-08-16T03:39:05.821Z,76.10
2022-08-16T03:40:05.858Z,102.10
2022-08-16T03:41:14.462Z,88.20
2022-08-16T03:42:05.766Z,72.50
2022-08-16T03:43:20.345Z,63.00
2022-08-16T03:44:05.703Z,56.90
2022-08-16T03:45:05.698Z,63.80
2022-08-16T03:46:05.700Z,87.00
2022-08-16T03:47:10.365Z,79.10
2022-08-16T03:48:07.196Z,62.50
2022-08-16T03:49:05.644Z,64.80
2022-08-16T03:50:26.223Z,79.70
2022-08-16T03:51:05.616Z,74.20
2022-08-16T03:52:05.610Z,71.60
2022-08-16T03:53:06.054Z,62.60
2022-08-16T03:54:12.373Z,61.50
2022-08-16T03:55:05.563Z,64.20
2022-08-16T03:56:05.531Z,64.70
2022-08-16T03:57:05.535Z,54.90
2022-08-16T03:58:05.499Z,67.70
2022-08-16T03:59:05.535Z,72.40
2022-08-16T04:00:05.595Z,89.30
2022-08-16T04:01:05.526Z,101.20
2022-08-16T04:02:12.563Z,84.80
2022-08-16T04:03:05.437Z,78.30
2022-08-16T04:04:05.405Z,76.70
2022-08-16T04:05:05.477Z,67.20
2022-08-16T04:06:05.426Z,64.80
2022-08-16T04:07:07.117Z,64.40
2022-08-16T04:08:22.927Z,49.60
2022-08-16T04:09:05.342Z,57.00
2022-08-16T04:10:36.989Z,63.60
2022-08-16T04:11:05.351Z,73.20
2022-08-16T04:12:11.100Z,69.80
2022-08-16T04:13:05.621Z,70.30
2022-08-16T04:14:31.003Z,61.40
2022-08-16T04:15:07.789Z,66.70
2022-08-16T04:16:06.571Z,72.40
2022-08-16T04:17:05.266Z,67.40
2022-08-16T04:18:05.270Z,74.70
2022-08-16T04:19:05.250Z,71.50
2022-08-16T04:20:06.584Z,82.30
2022-08-16T04:21:05.197Z,65.40
2022-08-16T04:22:08.587Z,64.70
2022-08-16T04:23:05.163Z,59.20
2022-08-16T04:24:08.018Z,64.40
2022-08-16T04:25:05.114Z,63.70
2022-08-16T04:26:05.094Z,68.60
2022-08-16T04:27:05.103Z,69.50
2022-08-16T04:28:53.233Z,64.70
2022-08-16T04:29:16.371Z,62.10
2022-08-16T04:30:05.060Z,69.90
2022-08-16T04:31:07.321Z,90.40
2022-08-16T04:32:05.019Z,71.10
2022-08-16T04:33:05.031Z,71.80
2022-08-16T04:34:05.010Z,74.40
2022-08-16T04:35:09.386Z,72.20
2022-08-16T04:36:04.982Z,70.50
2022-08-16T04:37:05.198Z,71.00
2022-08-16T04:38:11.049Z,94.50
2022-08-16T04:39:04.964Z,82.90
2022-08-16T04:40:05.661Z,85.50
2022-08-16T04:41:04.962Z,74.70
2022-08-16T04:42:11.364Z,80.40
2022-08-16T04:43:04.890Z,69.50
2022-08-16T04:44:33.151Z,70.30
2022-08-16T04:45:04.873Z,67.00
2022-08-16T04:46:04.876Z,81.00
2022-08-16T04:47:24.162Z,67.50
2022-08-16T04:48:04.821Z,84.40
2022-08-16T04:49:04.801Z,87.00
2022-08-16T04:50:04.829Z,73.60
2022-08-16T04:51:11.796Z,79.40
2022-08-16T04:52:04.776Z,85.00
2022-08-16T04:53:04.759Z,69.80
2022-08-16T04:54:04.765Z,84.50
2022-08-16T04:55:04.762Z,91.20
2022-08-16T04:56:04.712Z,101.30
2022-08-16T04:57:04.739Z,72.40
2022-08-16T04:58:04.765Z,76.20
2022-08-16T04:59:04.707Z,80.10
2022-08-16T05:00:30.696Z,83.30
2022-08-16T05:01:07.865Z,88.40
2022-08-16T05:02:04.687Z,84.50
2022-08-16T05:03:07.625Z,76.30
2022-08-16T05:04:04.627Z,71.80
2022-08-16T05:05:04.602Z,72.10
2022-08-16T05:06:04.953Z,67.10
2022-08-16T05:07:04.575Z,68.70
2022-08-16T05:08:28.087Z,65.90
2022-08-16T05:09:04.541Z,69.20
2022-08-16T05:10:04.575Z,62.60
2022-08-16T05:11:05.451Z,60.90
2022-08-16T05:12:04.474Z,63.00
2022-08-16T05:13:04.544Z,60.30
2022-08-16T05:14:06.761Z,67.40
2022-08-16T05:15:04.470Z,56.60
2022-08-16T05:16:04.432Z,59.50
2022-08-16T05:17:04.467Z,56.00
2022-08-16T05:18:04.418Z,54.50
2022-08-16T05:19:04.382Z,53.00
2022-08-16T05:20:38.843Z,54.40
2022-08-16T05:21:11.190Z,50.20
2022-08-16T05:22:04.360Z,50.60
2022-08-16T05:23:04.389Z,55.70
2022-08-16T05:24:06.164Z,54.90
2022-08-16T05:25:08.780Z,53.10
2022-08-16T05:26:04.334Z,54.60
2022-08-16T05:27:11.523Z,52.70
2022-08-16T05:28:04.293Z,50.90
2022-08-16T05:29:04.681Z,50.20
2022-08-16T05:30:34.499Z,52.70
2022-08-16T05:31:04.253Z,46.70
2022-08-16T05:32:04.206Z,44.30
2022-08-16T05:33:04.225Z,46.20
2022-08-16T05:34:04.374Z,46.80
2022-08-16T05:35:04.201Z,46.60
2022-08-16T05:36:04.211Z,44.80
2022-08-16T05:37:04.152Z,48.30
2022-08-16T05:38:04.139Z,48.70
2022-08-16T05:39:04.150Z,45.80
2022-08-16T05:40:06.281Z,44.40
2022-08-16T05:41:04.119Z,45.60
2022-08-16T05:42:04.098Z,46.30
2022-08-16T05:43:04.073Z,45.80
2022-08-16T05:44:05.526Z,44.30
2022-08-16T05:45:06.722Z,46.10
2022-08-16T05:46:04.031Z,46.10
2022-08-16T05:47:04.048Z,47.20
2022-08-16T05:48:04.011Z,53.10
2022-08-16T05:49:08.650Z,47.60
2022-08-16T05:50:04.018Z,47.50
2022-08-16T05:51:04.034Z,47.60
2022-08-16T05:52:03.992Z,49.90
2022-08-16T05:53:03.959Z,43.40
2022-08-16T05:54:03.966Z,47.00
2022-08-16T05:55:03.904Z,47.40
2022-08-16T05:56:04.444Z,47.30
2022-08-16T05:57:03.912Z,52.40
2022-08-16T05:58:03.886Z,50.30
2022-08-16T05:59:03.851Z,45.60
2022-08-16T06:00:08.500Z,46.20
2022-08-16T06:01:03.903Z,45.20
2022-08-16T06:02:03.869Z,45.10
2022-08-16T06:03:03.813Z,45.40
2022-08-16T06:04:03.781Z,42.80
2022-08-16T06:05:03.889Z,40.50
2022-08-16T06:06:03.787Z,40.40
2022-08-16T06:07:06.204Z,40.80
2022-08-16T06:08:03.745Z,41.80
2022-08-16T06:09:03.728Z,41.30
2022-08-16T06:10:03.711Z,39.40
2022-08-16T06:11:10.178Z,37.30
2022-08-16T06:12:03.678Z,40.80
2022-08-16T06:13:03.681Z,41.10
2022-08-16T06:14:03.667Z,38.40
2022-08-16T06:15:07.649Z,41.00
2022-08-16T06:16:03.625Z,41.80
2022-08-16T06:17:05.599Z,41.30
2022-08-16T06:18:03.620Z,39.70
2022-08-16T06:19:04.946Z,36.70
2022-08-16T06:20:03.580Z,37.70
2022-08-16T06:21:03.587Z,34.60
2022-08-16T06:22:03.550Z,35.30
2022-08-16T06:23:17.015Z,35.90
2022-08-16T06:24:03.534Z,36.10
2022-08-16T06:25:03.529Z,35.20
2022-08-16T06:26:03.502Z,32.50
2022-08-16T06:27:03.519Z,33.60
2022-08-16T06:28:03.451Z,32.70
2022-08-16T06:29:03.447Z,32.30
2022-08-16T06:30:03.728Z,32.60
2022-08-16T06:31:03.453Z,31.00
2022-08-16T06:32:04.102Z,32.40
2022-08-16T06:33:03.422Z,30.80
2022-08-16T06:34:03.393Z,30.60
2022-08-16T06:35:03.368Z,31.80
2022-08-16T06:36:03.341Z,31.70
2022-08-16T06:37:03.364Z,31.40
2022-08-16T06:38:03.332Z,30.70
2022-08-16T06:39:05.054Z,28.30
2022-08-16T06:40:03.341Z,28.20
2022-08-16T06:41:03.302Z,28.80
2022-08-16T06:42:03.292Z,29.50
2022-08-16T06:43:03.761Z,26.90
2022-08-16T06:44:03.234Z,26.60
2022-08-16T06:45:03.233Z,24.80
2022-08-16T06:46:03.577Z,24.30
2022-08-16T06:47:03.243Z,24.80
2022-08-16T06:48:03.221Z,23.40
2022-08-16T06:49:05.427Z,23.10
2022-08-16T06:50:03.188Z,23.30
2022-08-16T06:51:03.148Z,24.90
2022-08-16T06:52:03.557Z,25.90
2022-08-16T06:53:09.076Z,24.80
2022-08-16T06:54:03.134Z,27.00
2022-08-16T06:55:03.115Z,26.70
2022-08-16T06:56:03.095Z,27.90
2022-08-16T06:57:03.087Z,25.10
2022-08-16T06:58:08.512Z,25.80
2022-08-16T06:59:03.065Z,24.30
2022-08-16T07:00:03.069Z,24.30
2022-08-16T07:01:03.062Z,21.40
2022-08-16T07:02:03.053Z,21.40
2022-08-16T07:03:03.024Z,21.50
2022-08-16T07:04:03.004Z,22.10
2022-08-16T07:05:02.997Z,20.60
2022-08-16T07:06:02.969Z,20.90
2022-08-16T07:07:03.126Z,20.60
2022-08-16T07:08:02.932Z,18.60
2022-08-16T07:09:02.933Z,19.90
2022-08-16T07:10:08.789Z,19.50
2022-08-16T07:11:02.914Z,20.50
2022-08-16T07:12:03.413Z,20.10
2022-08-16T07:13:04.105Z,21.00
2022-08-16T07:14:23.120Z,17.80
2022-08-16T07:15:02.872Z,20.30
2022-08-16T07:16:02.848Z,19.70
2022-08-16T07:17:02.818Z,18.70
2022-08-16T07:18:02.822Z,19.60
2022-08-16T07:19:02.997Z,18.90
2022-08-16T07:20:34.825Z,18.50
2022-08-16T07:21:02.763Z,19.20
2022-08-16T07:22:02.747Z,18.60
2022-08-16T07:23:02.972Z,19.60
2022-08-16T07:24:06.130Z,19.70
2022-08-16T07:25:02.703Z,19.30
2022-08-16T07:26:02.702Z,19.40
2022-08-16T07:27:02.686Z,18.30
2022-08-16T07:28:02.666Z,18.90
2022-08-16T07:29:02.652Z,18.60
2022-08-16T07:30:02.619Z,19.20
2022-08-16T07:31:02.636Z,19.00
2022-08-16T07:32:02.614Z,18.20
2022-08-16T07:33:02.637Z,18.80
2022-08-16T07:34:02.589Z,20.40
2022-08-16T07:35:02.580Z,19.40
2022-08-16T07:36:02.560Z,19.80
2022-08-16T07:37:02.586Z,18.60
2022-08-16T07:38:02.545Z,18.70
2022-08-16T07:39:02.584Z,19.00
2022-08-16T07:40:02.549Z,18.60
2022-08-16T07:41:09.902Z,17.70
2022-08-16T07:42:02.519Z,19.40
2022-08-16T07:43:02.477Z,18.30
2022-08-16T07:44:02.458Z,18.40
2022-08-16T07:45:02.470Z,18.70
2022-08-16T07:46:02.459Z,18.80
2022-08-16T07:47:02.422Z,19.30
2022-08-16T07:48:11.753Z,18.30
2022-08-16T07:49:03.179Z,19.10
2022-08-16T07:50:05.459Z,19.40
2022-08-16T07:51:08.673Z,18.90
2022-08-16T07:52:02.353Z,19.20
2022-08-16T07:53:02.372Z,19.40
2022-08-16T07:54:10.102Z,19.10
2022-08-16T07:55:02.368Z,17.90
2022-08-16T07:56:04.256Z,18.60
2022-08-16T07:57:02.283Z,17.80
2022-08-16T07:58:03.025Z,18.90
2022-08-16T07:59:02.318Z,18.30
2022-08-16T08:00:02.253Z,18.40
2022-08-16T08:01:02.305Z,21.70
2022-08-16T08:02:02.224Z,17.00
2022-08-16T08:03:02.730Z,17.30
2022-08-16T08:04:02.531Z,23.90
2022-08-16T08:05:03.514Z,21.70
2022-08-16T08:06:02.147Z,20.00
2022-08-16T08:07:02.144Z,15.70
2022-08-16T08:08:02.187Z,18.00
2022-08-16T08:09:02.168Z,17.20
2022-08-16T08:10:02.218Z,17.00
2022-08-16T08:11:09.244Z,16.80
2022-08-16T08:12:05.581Z,18.70
2022-08-16T08:13:02.092Z,17.20
2022-08-16T08:14:03.525Z,15.70
2022-08-16T08:15:02.099Z,16.60
2022-08-16T08:16:02.037Z,15.50
2022-08-16T08:17:02.059Z,14.80
2022-08-16T08:18:28.893Z,21.20
2022-08-16T08:19:02.718Z,16.70
2022-08-16T08:20:01.977Z,14.60
2022-08-16T08:21:02.008Z,14.50
2022-08-16T08:22:05.979Z,13.40
2022-08-16T08:23:02.132Z,13.70
2022-08-16T08:24:01.911Z,14.10
2022-08-16T08:25:03.727Z,15.00
2022-08-16T08:26:01.971Z,14.50
2022-08-16T08:27:02.170Z,15.00
2022-08-16T08:28:01.872Z,15.60
2022-08-16T08:29:01.855Z,14.50
2022-08-16T08:30:49.969Z,15.30
2022-08-16T08:31:02.799Z,16.30
2022-08-16T08:32:01.894Z,14.30
2022-08-16T08:33:02.346Z,14.20
2022-08-16T08:34:02.133Z,13.30
2022-08-16T08:35:03.844Z,13.20
2022-08-16T08:36:01.853Z,13.30
2022-08-16T08:37:01.755Z,15.60
2022-08-16T08:38:01.777Z,14.40
2022-08-16T08:39:01.761Z,14.10
2022-08-16T08:40:01.802Z,13.20
2022-08-16T08:41:01.764Z,15.80
2022-08-16T08:42:01.820Z,13.70
2022-08-16T08:43:12.669Z,12.10
2022-08-16T08:44:01.657Z,11.50
2022-08-16T08:45:01.667Z,11.50
2022-08-16T08:46:01.673Z,15.20
2022-08-16T08:47:02.723Z,10.50
2022-08-16T08:48:01.645Z,12.50
2022-08-16T08:49:02.377Z,12.20
2022-08-16T08:50:01.581Z,12.40
2022-08-16T08:51:01.550Z,14.00
2022-08-16T08:52:01.619Z,12.10
2022-08-16T08:53:01.573Z,13.00
2022-08-16T08:54:01.751Z,10.20
2022-08-16T08:55:01.534Z,9.80
2022-08-16T08:56:01.501Z,11.30
2022-08-16T08:57:01.520Z,12.80
2022-08-16T08:58:01.523Z,10.60
2022-08-16T08:59:04.642Z,10.70
2022-08-16T09:00:01.527Z,11.80
2022-08-16T09:01:02.085Z,9.90
2022-08-16T09:02:01.418Z,11.70
2022-08-16T09:03:04.480Z,9.50
2022-08-16T09:04:01.488Z,10.30
2022-08-16T09:05:01.421Z,11.90
2022-08-16T09:06:01.563Z,9.30
2022-08-16T09:07:01.749Z,9.40
2022-08-16T09:08:05.825Z,11.30
2022-08-16T09:09:01.357Z,10.20
2022-08-16T09:10:06.764Z,8.80
2022-08-16T09:11:03.083Z,9.00
2022-08-16T09:12:06.003Z,12.20
2022-08-16T09:13:01.340Z,10.70
2022-08-16T09:14:01.282Z,10.40
2022-08-16T09:15:01.312Z,9.40
2022-08-16T09:16:01.377Z,10.50
2022-08-16T09:17:11.360Z,10.70
2022-08-16T09:18:02.056Z,10.30
2022-08-16T09:19:04.063Z,13.50
2022-08-16T09:20:04.655Z,9.40
2022-08-16T09:21:02.011Z,9.60
2022-08-16T09:22:01.260Z,8.80
2022-08-16T09:23:01.188Z,10.10
2022-08-16T09:24:01.204Z,10.40
2022-08-16T09:25:11.125Z,12.10
2022-08-16T09:26:01.282Z,9.10
2022-08-16T09:27:01.147Z,9.50
2022-08-16T09:28:02.800Z,9.40
2022-08-16T09:29:15.187Z,10.10
2022-08-16T09:30:02.688Z,10.50
2022-08-16T09:31:01.151Z,9.00
2022-08-16T09:32:01.112Z,8.00
2022-08-16T09:33:01.102Z,9.10
2022-08-16T09:34:01.091Z,8.00
2022-08-16T09:35:01.055Z,8.40
2022-08-16T09:36:01.052Z,8.20
2022-08-16T09:37:01.169Z,9.20
2022-08-16T09:38:01.466Z,9.80
2022-08-16T09:39:01.057Z,9.60
2022-08-16T09:40:01.017Z,9.40
2022-08-16T09:41:01.132Z,10.10
2022-08-16T09:42:00.996Z,8.90
2022-08-16T09:43:01.168Z,9.70
2022-08-16T09:45:09.773Z,8.30
2022-08-16T09:45:22.265Z,9.10
2022-08-16T09:46:00.944Z,8.80
2022-08-16T09:47:00.884Z,8.80
2022-08-16T09:48:00.909Z,7.30
2022-08-16T09:49:03.481Z,8.00
2022-08-16T09:50:00.855Z,7.50
2022-08-16T09:51:01.699Z,9.10
2022-08-16T09:52:00.915Z,6.40
2022-08-16T09:53:00.837Z,6.70
2022-08-16T09:54:00.822Z,8.70
2022-08-16T09:55:00.831Z,9.60
2022-08-16T09:56:00.823Z,9.90
2022-08-16T09:57:00.788Z,8.20
2022-08-16T09:58:00.838Z,8.00
2022-08-16T09:59:04.961Z,8.10
2022-08-16T10:00:00.769Z,11.40
2022-08-16T10:01:01.020Z,9.60
2022-08-16T10:02:00.796Z,8.70
2022-08-16T10:03:00.773Z,10.50
2022-08-16T10:04:00.799Z,9.10
2022-08-16T10:05:00.770Z,10.50
2022-08-16T10:06:00.689Z,8.40
2022-08-16T10:08:00.797Z,7.60
2022-08-16T10:09:04.623Z,8.10
2022-08-16T10:10:00.674Z,8.10
2022-08-16T10:11:00.620Z,9.20
2022-08-16T10:12:11.422Z,8.90
2022-08-16T10:13:00.610Z,8.50
2022-08-16T10:14:00.623Z,10.30
2022-08-16T10:15:00.562Z,8.00
2022-08-16T10:16:00.604Z,7.90
2022-08-16T10:17:02.442Z,8.20
2022-08-16T10:18:02.533Z,8.10
2022-08-16T10:19:07.068Z,12.20
2022-08-16T10:20:00.541Z,7.90
2022-08-16T10:21:00.504Z,8.10
2022-08-16T10:22:05.238Z,7.90
2022-08-16T10:23:06.138Z,8.90
2022-08-16T10:24:00.502Z,7.70
2022-08-16T10:25:00.481Z,7.50
2022-08-16T10:27:17.755Z,7.30
2022-08-16T10:27:56.973Z,7.70
2022-08-16T10:28:27.637Z,6.70
2022-08-16T10:29:00.460Z,9.20
2022-08-16T10:30:07.003Z,8.00
2022-08-16T10:31:00.419Z,6.40
2022-08-16T10:32:00.396Z,9.60
2022-08-16T10:33:00.373Z,6.60
2022-08-16T10:34:00.402Z,6.70
2022-08-16T10:35:00.395Z,13.20
2022-08-16T10:36:03.713Z,8.60
2022-08-16T10:37:00.361Z,6.50
2022-08-16T10:38:00.338Z,9.10
2022-08-16T10:39:00.528Z,5.70
2022-08-16T10:40:00.398Z,7.40
2022-08-16T10:41:00.985Z,6.90
2022-08-16T10:42:00.440Z,6.00
2022-08-16T10:43:00.480Z,7.30
2022-08-16T10:44:00.257Z,9.20
2022-08-16T10:45:00.320Z,9.20
2022-08-16T10:46:01.352Z,7.40
2022-08-16T10:47:00.210Z,8.40
2022-08-16T10:48:00.683Z,5.90
2022-08-16T10:49:00.949Z,7.70
2022-08-16T10:50:00.215Z,7.20
2022-08-16T10:51:00.182Z,6.00
2022-08-16T10:52:01.789Z,5.60
2022-08-16T10:53:00.339Z,6.40
2022-08-16T10:54:00.183Z,6.30
2022-08-16T10:55:40.420Z,5.40
2022-08-16T10:56:01.426Z,5.30
2022-08-16T10:57:00.116Z,6.00
2022-08-16T10:58:00.104Z,6.00
2022-08-16T11:00:00.106Z,7.90
2022-08-16T11:01:00.088Z,6.00
2022-08-16T11:03:01.203Z,7.60
2022-08-16T11:04:00.822Z,8.10
2022-08-16T11:05:08.517Z,6.20
2022-08-16T11:06:00.342Z,6.40
2022-08-16T11:07:07.914Z,8.30
2022-08-16T11:08:00.287Z,5.70
2022-08-16T11:10:19.802Z,6.40
2022-08-16T11:11:04.890Z,7.20
2022-08-16T11:12:15.319Z,11.20
2022-08-16T11:13:57.559Z,5.70
2022-08-16T11:14:05.943Z,4.90
2022-08-16T11:15:17.225Z,5.40
2022-08-16T11:16:00.349Z,7.00
2022-08-16T11:17:02.975Z,7.40
2022-08-16T11:19:04.824Z,12.70
2022-08-16T11:20:40.695Z,4.60
2022-08-16T11:20:59.860Z,7.20
2022-08-16T11:22:39.337Z,3.70
2022-08-16T11:22:59.865Z,5.50
2022-08-16T11:24:00.038Z,6.50
2022-08-16T11:25:59.657Z,9.10
2022-08-16T11:26:22.746Z,4.70
2022-08-16T11:27:59.759Z,3.80
2022-08-16T11:29:15.263Z,11.50
2022-08-16T11:29:59.817Z,8.60
2022-08-16T11:30:59.737Z,10.70
2022-08-16T11:31:59.723Z,8.70
2022-08-16T11:32:59.737Z,6.50
2022-08-16T11:33:59.999Z,9.70
2022-08-16T11:35:11.200Z,5.30
2022-08-16T11:37:01.052Z,8.90
2022-08-16T11:38:46.678Z,6.20
2022-08-16T11:39:00.387Z,5.20
2022-08-16T11:40:00.087Z,4.90
2022-08-16T11:40:59.711Z,3.90
2022-08-16T11:41:59.645Z,4.40
2022-08-16T11:42:59.639Z,5.40
2022-08-16T11:43:59.631Z,4.60
2022-08-16T11:44:59.588Z,4.50
2022-08-16T11:46:07.792Z,5.00
2022-08-16T11:46:59.586Z,5.00
2022-08-16T11:47:59.599Z,4.70
2022-08-16T11:48:59.630Z,6.10
2022-08-16T11:49:59.546Z,6.10
2022-08-16T11:50:59.536Z,6.70
2022-08-16T11:51:59.538Z,4.50
2022-08-16T11:52:59.511Z,4.80
2022-08-16T11:53:59.514Z,5.10
2022-08-16T11:55:00.111Z,5.70
2022-08-16T11:55:59.475Z,7.00
2022-08-16T11:56:59.462Z,5.80
2022-08-16T11:57:59.470Z,5.40
2022-08-16T11:58:59.452Z,5.70
2022-08-16T11:59:59.449Z,6.20
2022-08-16T12:00:59.422Z,4.70
2022-08-16T12:02:04.170Z,4.90
2022-08-16T12:02:59.580Z,6.60
2022-08-16T12:03:59.445Z,6.50
2022-08-16T12:04:59.482Z,4.30
2022-08-16T12:05:59.438Z,4.50
2022-08-16T12:06:59.374Z,5.30
2022-08-16T12:07:59.483Z,5.70
2022-08-16T12:09:01.765Z,6.60
2022-08-16T12:09:59.384Z,6.90
2022-08-16T12:10:59.575Z,8.60
2022-08-16T12:12:02.684Z,4.60
2022-08-16T12:12:59.341Z,5.40
2022-08-16T12:13:59.277Z,4.00
2022-08-16T12:15:00.187Z,4.90
2022-08-16T12:15:59.291Z,5.10
2022-08-16T12:16:59.251Z,6.10
2022-08-16T12:17:59.247Z,7.30
2022-08-16T12:18:59.267Z,5.80
2022-08-16T12:19:59.213Z,7.80
2022-08-16T12:20:59.974Z,9.00
2022-08-16T12:21:59.682Z,6.70
2022-08-16T12:22:59.193Z,8.30
2022-08-16T12:23:59.315Z,5.00
2022-08-16T12:24:59.252Z,4.70
2022-08-16T12:25:59.184Z,8.10
2022-08-16T12:27:00.044Z,5.10
2022-08-16T12:27:59.161Z,5.10
2022-08-16T12:28:59.465Z,6.00
2022-08-16T12:29:59.200Z,5.70
2022-08-16T12:30:59.110Z,4.70
2022-08-16T12:32:12.200Z,5.40
2022-08-16T12:32:59.155Z,6.80
2022-08-16T12:33:59.062Z,5.80
2022-08-16T12:34:59.101Z,5.30
2022-08-16T12:35:59.112Z,4.60
2022-08-16T12:36:59.086Z,5.60
2022-08-16T12:37:59.061Z,9.00
2022-08-16T12:38:59.149Z,4.20
2022-08-16T12:39:59.028Z,6.00
2022-08-16T12:40:59.011Z,8.70
2022-08-16T12:41:58.963Z,9.30
2022-08-16T12:42:59.471Z,5.40
2022-08-16T12:44:00.972Z,9.00
2022-08-16T12:44:58.951Z,4.80
2022-08-16T12:45:58.999Z,11.40
2022-08-16T12:46:58.945Z,6.30
2022-08-16T12:48:22.496Z,5.60
2022-08-16T12:48:59.017Z,6.30
2022-08-16T12:49:58.889Z,5.50
2022-08-16T12:50:58.898Z,4.70
2022-08-16T12:52:01.239Z,4.60
2022-08-16T12:52:59.139Z,4.60
2022-08-16T12:53:58.988Z,5.50
2022-08-16T12:54:58.835Z,9.40
2022-08-16T12:55:58.802Z,4.10
2022-08-16T12:56:58.926Z,5.20
2022-08-16T12:58:00.486Z,4.60
2022-08-16T12:58:58.800Z,4.80
2022-08-16T12:59:58.759Z,5.00
2022-08-16T13:00:58.795Z,4.80
2022-08-16T13:01:58.841Z,5.10
2022-08-16T13:02:58.743Z,4.90
2022-08-16T13:04:11.984Z,4.80
2022-08-16T13:04:58.741Z,5.60
2022-08-16T13:05:58.786Z,5.90